sensor_id;sensor_type;location;lat;lon;timestamp;P1;durP1;ratioP1;P2;durP2;ratioP2
10295;SDS011;5193;51.032;6.356;2023-05-07T00:00:33;10.27;;;7.07;;
10295;SDS011;5193;51.032;6.356;2023-05-07T00:02:59;10.17;;;7.83;;
10295;SDS011;5193;51.032;6.356;2023-05-07T00:05:25;11.20;;;8.70;;
10295;SDS011;5193;51.032;6.356;2023-05-07T00:07:51;9.43;;;8.20;;
10295;SDS011;5193;51.032;6.356;2023-05-07T00:10:17;14.53;;;9.47;;
10295;SDS011;5193;51.032;6.356;2023-05-07T00:12:43;11.80;;;9.17;;
10295;SDS011;5193;51.032;6.356;2023-05-07T00:15:09;14.67;;;8.60;;
10295;SDS011;5193;51.032;6.356;2023-05-07T00:17:36;12.47;;;9.00;;
10295;SDS011;5193;51.032;6.356;2023-05-07T00:20:02;10.80;;;8.40;;
10295;SDS011;5193;51.032;6.356;2023-05-07T00:22:29;9.77;;;8.77;;
10295;SDS011;5193;51.032;6.356;2023-05-07T00:24:56;11.57;;;7.93;;
10295;SDS011;5193;51.032;6.356;2023-05-07T00:27:22;10.70;;;8.77;;
10295;SDS011;5193;51.032;6.356;2023-05-07T00:29:47;9.97;;;8.60;;
10295;SDS011;5193;51.032;6.356;2023-05-07T00:32:13;10.00;;;8.97;;
10295;SDS011;5193;51.032;6.356;2023-05-07T00:34:39;10.97;;;8.67;;
10295;SDS011;5193;51.032;6.356;2023-05-07T00:37:04;12.03;;;8.70;;
10295;SDS011;5193;51.032;6.356;2023-05-07T00:39:32;9.27;;;8.07;;
10295;SDS011;5193;51.032;6.356;2023-05-07T00:41:58;8.57;;;7.67;;
10295;SDS011;5193;51.032;6.356;2023-05-07T00:44:24;8.90;;;7.70;;
10295;SDS011;5193;51.032;6.356;2023-05-07T00:46:50;9.83;;;7.87;;
10295;SDS011;5193;51.032;6.356;2023-05-07T00:49:16;10.30;;;7.60;;
10295;SDS011;5193;51.032;6.356;2023-05-07T00:51:42;10.30;;;8.33;;
10295;SDS011;5193;51.032;6.356;2023-05-07T00:54:08;8.53;;;7.13;;
10295;SDS011;5193;51.032;6.356;2023-05-07T00:56:34;8.37;;;6.70;;
10295;SDS011;5193;51.032;6.356;2023-05-07T00:59:01;9.57;;;7.40;;
10295;SDS011;5193;51.032;6.356;2023-05-07T01:01:28;7.67;;;6.93;;
10295;SDS011;5193;51.032;6.356;2023-05-07T01:03:53;11.73;;;8.33;;
10295;SDS011;5193;51.032;6.356;2023-05-07T01:06:19;8.77;;;7.67;;
10295;SDS011;5193;51.032;6.356;2023-05-07T01:08:46;8.20;;;7.17;;
10295;SDS011;5193;51.032;6.356;2023-05-07T01:11:13;8.43;;;7.43;;
10295;SDS011;5193;51.032;6.356;2023-05-07T01:13:39;9.10;;;6.60;;
10295;SDS011;5193;51.032;6.356;2023-05-07T01:16:06;7.83;;;7.03;;
10295;SDS011;5193;51.032;6.356;2023-05-07T01:18:33;9.20;;;7.17;;
10295;SDS011;5193;51.032;6.356;2023-05-07T01:20:59;9.00;;;7.63;;
10295;SDS011;5193;51.032;6.356;2023-05-07T01:23:28;9.93;;;7.27;;
10295;SDS011;5193;51.032;6.356;2023-05-07T01:25:55;6.80;;;6.00;;
10295;SDS011;5193;51.032;6.356;2023-05-07T01:28:21;7.57;;;6.87;;
10295;SDS011;5193;51.032;6.356;2023-05-07T01:30:49;8.40;;;6.67;;
10295;SDS011;5193;51.032;6.356;2023-05-07T01:33:27;7.47;;;6.73;;
10295;SDS011;5193;51.032;6.356;2023-05-07T01:35:56;9.57;;;6.97;;
10295;SDS011;5193;51.032;6.356;2023-05-07T01:38:25;9.17;;;6.83;;
10295;SDS011;5193;51.032;6.356;2023-05-07T01:40:51;7.97;;;6.80;;
10295;SDS011;5193;51.032;6.356;2023-05-07T01:43:18;7.20;;;6.50;;
10295;SDS011;5193;51.032;6.356;2023-05-07T01:45:44;13.50;;;6.80;;
10295;SDS011;5193;51.032;6.356;2023-05-07T01:48:11;7.77;;;6.57;;
10295;SDS011;5193;51.032;6.356;2023-05-07T01:50:37;7.50;;;6.80;;
10295;SDS011;5193;51.032;6.356;2023-05-07T01:53:04;8.73;;;6.53;;
10295;SDS011;5193;51.032;6.356;2023-05-07T01:55:30;10.97;;;7.13;;
10295;SDS011;5193;51.032;6.356;2023-05-07T01:57:55;9.23;;;6.67;;
10295;SDS011;5193;51.032;6.356;2023-05-07T02:00:21;7.60;;;6.43;;
10295;SDS011;5193;51.032;6.356;2023-05-07T02:02:47;9.80;;;6.53;;
10295;SDS011;5193;51.032;6.356;2023-05-07T02:05:12;8.17;;;7.27;;
10295;SDS011;5193;51.032;6.356;2023-05-07T02:07:38;11.80;;;8.30;;
10295;SDS011;5193;51.032;6.356;2023-05-07T02:10:04;15.03;;;8.23;;
10295;SDS011;5193;51.032;6.356;2023-05-07T02:12:30;13.73;;;9.00;;
10295;SDS011;5193;51.032;6.356;2023-05-07T02:14:55;12.83;;;9.77;;
10295;SDS011;5193;51.032;6.356;2023-05-07T02:17:21;12.83;;;8.90;;
10295;SDS011;5193;51.032;6.356;2023-05-07T02:19:46;15.90;;;9.47;;
10295;SDS011;5193;51.032;6.356;2023-05-07T02:22:12;15.70;;;9.80;;
10295;SDS011;5193;51.032;6.356;2023-05-07T02:24:38;13.87;;;10.00;;
10295;SDS011;5193;51.032;6.356;2023-05-07T02:27:03;14.33;;;9.70;;
10295;SDS011;5193;51.032;6.356;2023-05-07T02:29:29;14.73;;;9.50;;
10295;SDS011;5193;51.032;6.356;2023-05-07T02:31:55;14.27;;;9.97;;
10295;SDS011;5193;51.032;6.356;2023-05-07T02:34:20;13.80;;;9.63;;
10295;SDS011;5193;51.032;6.356;2023-05-07T02:36:46;13.30;;;9.67;;
10295;SDS011;5193;51.032;6.356;2023-05-07T02:39:12;13.17;;;9.53;;
10295;SDS011;5193;51.032;6.356;2023-05-07T02:41:38;13.43;;;9.53;;
10295;SDS011;5193;51.032;6.356;2023-05-07T02:44:04;14.43;;;9.17;;
10295;SDS011;5193;51.032;6.356;2023-05-07T02:46:29;16.53;;;10.50;;
10295;SDS011;5193;51.032;6.356;2023-05-07T02:48:55;14.77;;;10.03;;
10295;SDS011;5193;51.032;6.356;2023-05-07T02:51:21;15.70;;;10.07;;
10295;SDS011;5193;51.032;6.356;2023-05-07T02:53:47;12.83;;;9.80;;
10295;SDS011;5193;51.032;6.356;2023-05-07T02:56:13;12.20;;;9.50;;
10295;SDS011;5193;51.032;6.356;2023-05-07T02:58:39;15.23;;;10.37;;
10295;SDS011;5193;51.032;6.356;2023-05-07T03:01:05;15.93;;;9.80;;
10295;SDS011;5193;51.032;6.356;2023-05-07T03:03:31;17.63;;;11.03;;
10295;SDS011;5193;51.032;6.356;2023-05-07T03:05:57;14.27;;;9.90;;
10295;SDS011;5193;51.032;6.356;2023-05-07T03:08:22;15.50;;;10.60;;
10295;SDS011;5193;51.032;6.356;2023-05-07T03:10:48;15.23;;;10.50;;
10295;SDS011;5193;51.032;6.356;2023-05-07T03:13:14;15.87;;;10.80;;
10295;SDS011;5193;51.032;6.356;2023-05-07T03:15:40;14.30;;;10.07;;
10295;SDS011;5193;51.032;6.356;2023-05-07T03:18:05;16.37;;;10.47;;
10295;SDS011;5193;51.032;6.356;2023-05-07T03:20:31;18.93;;;11.77;;
10295;SDS011;5193;51.032;6.356;2023-05-07T03:22:57;18.57;;;12.03;;
10295;SDS011;5193;51.032;6.356;2023-05-07T03:25:23;16.67;;;11.93;;
10295;SDS011;5193;51.032;6.356;2023-05-07T03:27:48;16.77;;;12.33;;
10295;SDS011;5193;51.032;6.356;2023-05-07T03:30:14;16.17;;;11.33;;
10295;SDS011;5193;51.032;6.356;2023-05-07T03:32:40;18.87;;;13.10;;
10295;SDS011;5193;51.032;6.356;2023-05-07T03:35:05;16.43;;;11.27;;
10295;SDS011;5193;51.032;6.356;2023-05-07T03:37:32;20.30;;;11.27;;
10295;SDS011;5193;51.032;6.356;2023-05-07T03:39:57;16.53;;;11.60;;
10295;SDS011;5193;51.032;6.356;2023-05-07T03:42:23;15.87;;;11.33;;
10295;SDS011;5193;51.032;6.356;2023-05-07T03:44:49;15.30;;;10.70;;
10295;SDS011;5193;51.032;6.356;2023-05-07T03:47:14;15.13;;;10.90;;
10295;SDS011;5193;51.032;6.356;2023-05-07T03:49:40;17.23;;;10.50;;
10295;SDS011;5193;51.032;6.356;2023-05-07T03:52:06;15.97;;;10.90;;
10295;SDS011;5193;51.032;6.356;2023-05-07T03:54:31;20.43;;;11.63;;
10295;SDS011;5193;51.032;6.356;2023-05-07T03:56:57;22.50;;;10.63;;
10295;SDS011;5193;51.032;6.356;2023-05-07T03:59:23;16.23;;;11.43;;
10295;SDS011;5193;51.032;6.356;2023-05-07T04:01:48;16.67;;;11.23;;
10295;SDS011;5193;51.032;6.356;2023-05-07T04:04:14;17.83;;;10.53;;
10295;SDS011;5193;51.032;6.356;2023-05-07T04:06:40;15.27;;;11.00;;
10295;SDS011;5193;51.032;6.356;2023-05-07T04:09:06;16.40;;;11.63;;
10295;SDS011;5193;51.032;6.356;2023-05-07T04:11:32;15.40;;;11.93;;
10295;SDS011;5193;51.032;6.356;2023-05-07T04:13:58;16.40;;;11.17;;
10295;SDS011;5193;51.032;6.356;2023-05-07T04:16:23;16.83;;;11.57;;
10295;SDS011;5193;51.032;6.356;2023-05-07T04:18:49;15.43;;;11.93;;
10295;SDS011;5193;51.032;6.356;2023-05-07T04:21:15;19.80;;;11.70;;
10295;SDS011;5193;51.032;6.356;2023-05-07T04:23:41;19.70;;;12.63;;
10295;SDS011;5193;51.032;6.356;2023-05-07T04:26:07;18.73;;;12.07;;
10295;SDS011;5193;51.032;6.356;2023-05-07T04:28:33;18.07;;;11.67;;
10295;SDS011;5193;51.032;6.356;2023-05-07T04:30:59;17.53;;;11.87;;
10295;SDS011;5193;51.032;6.356;2023-05-07T04:33:25;20.73;;;13.03;;
10295;SDS011;5193;51.032;6.356;2023-05-07T04:35:50;23.00;;;14.13;;
10295;SDS011;5193;51.032;6.356;2023-05-07T04:38:16;21.40;;;12.57;;
10295;SDS011;5193;51.032;6.356;2023-05-07T04:40:43;17.70;;;12.63;;
10295;SDS011;5193;51.032;6.356;2023-05-07T04:43:09;18.53;;;13.63;;
10295;SDS011;5193;51.032;6.356;2023-05-07T04:45:35;23.23;;;13.30;;
10295;SDS011;5193;51.032;6.356;2023-05-07T04:48:01;16.93;;;12.57;;
10295;SDS011;5193;51.032;6.356;2023-05-07T04:50:27;17.37;;;12.47;;
10295;SDS011;5193;51.032;6.356;2023-05-07T04:52:52;18.30;;;12.27;;
10295;SDS011;5193;51.032;6.356;2023-05-07T04:55:18;20.37;;;13.47;;
10295;SDS011;5193;51.032;6.356;2023-05-07T04:57:43;16.87;;;12.33;;
10295;SDS011;5193;51.032;6.356;2023-05-07T05:00:10;21.47;;;12.83;;
10295;SDS011;5193;51.032;6.356;2023-05-07T05:02:39;19.07;;;12.23;;
10295;SDS011;5193;51.032;6.356;2023-05-07T05:05:05;20.10;;;11.43;;
10295;SDS011;5193;51.032;6.356;2023-05-07T05:07:31;17.83;;;10.30;;
10295;SDS011;5193;51.032;6.356;2023-05-07T05:09:57;14.13;;;10.17;;
10295;SDS011;5193;51.032;6.356;2023-05-07T05:12:22;18.07;;;10.30;;
10295;SDS011;5193;51.032;6.356;2023-05-07T05:14:48;14.27;;;10.10;;
10295;SDS011;5193;51.032;6.356;2023-05-07T05:17:14;16.47;;;10.33;;
10295;SDS011;5193;51.032;6.356;2023-05-07T05:19:39;14.93;;;9.67;;
10295;SDS011;5193;51.032;6.356;2023-05-07T05:22:05;15.80;;;9.43;;
10295;SDS011;5193;51.032;6.356;2023-05-07T05:24:31;12.80;;;9.00;;
10295;SDS011;5193;51.032;6.356;2023-05-07T05:26:56;12.53;;;9.20;;
10295;SDS011;5193;51.032;6.356;2023-05-07T05:29:22;14.03;;;9.23;;
10295;SDS011;5193;51.032;6.356;2023-05-07T05:31:48;16.07;;;10.17;;
10295;SDS011;5193;51.032;6.356;2023-05-07T05:34:13;18.70;;;9.50;;
10295;SDS011;5193;51.032;6.356;2023-05-07T05:36:39;12.80;;;8.97;;
10295;SDS011;5193;51.032;6.356;2023-05-07T05:39:04;15.13;;;9.33;;
10295;SDS011;5193;51.032;6.356;2023-05-07T05:41:30;17.27;;;10.00;;
10295;SDS011;5193;51.032;6.356;2023-05-07T05:43:56;14.27;;;8.87;;
10295;SDS011;5193;51.032;6.356;2023-05-07T05:46:22;13.83;;;9.87;;
10295;SDS011;5193;51.032;6.356;2023-05-07T05:48:47;14.67;;;9.03;;
10295;SDS011;5193;51.032;6.356;2023-05-07T05:51:13;15.53;;;9.50;;
10295;SDS011;5193;51.032;6.356;2023-05-07T05:53:38;17.80;;;8.80;;
10295;SDS011;5193;51.032;6.356;2023-05-07T05:56:04;14.30;;;8.47;;
10295;SDS011;5193;51.032;6.356;2023-05-07T05:58:30;12.43;;;8.57;;
10295;SDS011;5193;51.032;6.356;2023-05-07T06:00:56;10.80;;;8.53;;
10295;SDS011;5193;51.032;6.356;2023-05-07T06:03:21;10.80;;;8.20;;
10295;SDS011;5193;51.032;6.356;2023-05-07T06:05:47;11.57;;;8.57;;
10295;SDS011;5193;51.032;6.356;2023-05-07T06:08:13;12.33;;;8.70;;
10295;SDS011;5193;51.032;6.356;2023-05-07T06:10:38;13.00;;;9.23;;
10295;SDS011;5193;51.032;6.356;2023-05-07T06:13:04;11.90;;;7.97;;
10295;SDS011;5193;51.032;6.356;2023-05-07T06:15:30;11.27;;;8.30;;
10295;SDS011;5193;51.032;6.356;2023-05-07T06:17:55;13.30;;;8.50;;
10295;SDS011;5193;51.032;6.356;2023-05-07T06:20:22;10.90;;;8.37;;
10295;SDS011;5193;51.032;6.356;2023-05-07T06:22:48;12.03;;;7.50;;
10295;SDS011;5193;51.032;6.356;2023-05-07T06:25:13;10.83;;;7.07;;
10295;SDS011;5193;51.032;6.356;2023-05-07T06:27:39;11.10;;;8.10;;
10295;SDS011;5193;51.032;6.356;2023-05-07T06:30:05;11.83;;;7.80;;
10295;SDS011;5193;51.032;6.356;2023-05-07T06:32:32;9.00;;;6.97;;
10295;SDS011;5193;51.032;6.356;2023-05-07T06:34:57;8.80;;;6.93;;
10295;SDS011;5193;51.032;6.356;2023-05-07T06:37:23;9.33;;;7.33;;
10295;SDS011;5193;51.032;6.356;2023-05-07T06:39:48;9.00;;;7.13;;
10295;SDS011;5193;51.032;6.356;2023-05-07T06:42:14;9.13;;;6.80;;
10295;SDS011;5193;51.032;6.356;2023-05-07T06:44:40;9.30;;;6.67;;
10295;SDS011;5193;51.032;6.356;2023-05-07T06:47:05;9.23;;;6.50;;
10295;SDS011;5193;51.032;6.356;2023-05-07T06:49:31;7.77;;;6.17;;
10295;SDS011;5193;51.032;6.356;2023-05-07T06:51:57;10.80;;;7.27;;
10295;SDS011;5193;51.032;6.356;2023-05-07T06:54:23;8.90;;;6.73;;
10295;SDS011;5193;51.032;6.356;2023-05-07T06:56:48;8.87;;;6.50;;
10295;SDS011;5193;51.032;6.356;2023-05-07T06:59:14;9.53;;;6.97;;
10295;SDS011;5193;51.032;6.356;2023-05-07T07:01:40;8.40;;;6.17;;
10295;SDS011;5193;51.032;6.356;2023-05-07T07:04:06;8.10;;;6.03;;
10295;SDS011;5193;51.032;6.356;2023-05-07T07:06:31;7.07;;;5.50;;
10295;SDS011;5193;51.032;6.356;2023-05-07T07:08:57;11.33;;;5.17;;
10295;SDS011;5193;51.032;6.356;2023-05-07T07:11:23;8.87;;;5.20;;
10295;SDS011;5193;51.032;6.356;2023-05-07T07:13:49;8.27;;;5.20;;
10295;SDS011;5193;51.032;6.356;2023-05-07T07:16:15;7.50;;;5.50;;
10295;SDS011;5193;51.032;6.356;2023-05-07T07:18:41;6.53;;;5.00;;
10295;SDS011;5193;51.032;6.356;2023-05-07T07:21:07;5.90;;;5.17;;
10295;SDS011;5193;51.032;6.356;2023-05-07T07:23:33;5.73;;;5.13;;
10295;SDS011;5193;51.032;6.356;2023-05-07T07:25:58;6.27;;;5.47;;
10295;SDS011;5193;51.032;6.356;2023-05-07T07:28:24;7.63;;;4.87;;
10295;SDS011;5193;51.032;6.356;2023-05-07T07:30:50;7.10;;;5.13;;
10295;SDS011;5193;51.032;6.356;2023-05-07T07:33:15;6.53;;;4.37;;
10295;SDS011;5193;51.032;6.356;2023-05-07T07:35:42;6.30;;;4.50;;
10295;SDS011;5193;51.032;6.356;2023-05-07T07:38:07;5.33;;;4.67;;
10295;SDS011;5193;51.032;6.356;2023-05-07T07:40:36;6.47;;;4.80;;
10295;SDS011;5193;51.032;6.356;2023-05-07T07:43:02;6.40;;;5.17;;
10295;SDS011;5193;51.032;6.356;2023-05-07T07:45:27;6.77;;;4.30;;
10295;SDS011;5193;51.032;6.356;2023-05-07T07:47:53;7.37;;;4.20;;
10295;SDS011;5193;51.032;6.356;2023-05-07T07:50:18;5.90;;;4.03;;
10295;SDS011;5193;51.032;6.356;2023-05-07T07:52:44;5.47;;;2.80;;
10295;SDS011;5193;51.032;6.356;2023-05-07T07:55:10;4.90;;;3.10;;
10295;SDS011;5193;51.032;6.356;2023-05-07T07:57:37;4.80;;;3.07;;
10295;SDS011;5193;51.032;6.356;2023-05-07T08:00:02;3.97;;;3.20;;
10295;SDS011;5193;51.032;6.356;2023-05-07T08:02:28;10.07;;;3.40;;
10295;SDS011;5193;51.032;6.356;2023-05-07T08:04:54;4.93;;;3.13;;
10295;SDS011;5193;51.032;6.356;2023-05-07T08:07:20;2.63;;;2.37;;
10295;SDS011;5193;51.032;6.356;2023-05-07T08:09:47;3.50;;;2.97;;
10295;SDS011;5193;51.032;6.356;2023-05-07T08:12:13;3.77;;;2.33;;
10295;SDS011;5193;51.032;6.356;2023-05-07T08:14:39;4.13;;;2.90;;
10295;SDS011;5193;51.032;6.356;2023-05-07T08:17:04;4.30;;;2.90;;
10295;SDS011;5193;51.032;6.356;2023-05-07T08:19:30;3.57;;;2.57;;
10295;SDS011;5193;51.032;6.356;2023-05-07T08:21:55;3.93;;;2.03;;
10295;SDS011;5193;51.032;6.356;2023-05-07T08:24:21;3.00;;;2.30;;
10295;SDS011;5193;51.032;6.356;2023-05-07T08:26:46;3.93;;;2.40;;
10295;SDS011;5193;51.032;6.356;2023-05-07T08:29:12;2.63;;;2.17;;
10295;SDS011;5193;51.032;6.356;2023-05-07T08:31:37;3.20;;;2.27;;
10295;SDS011;5193;51.032;6.356;2023-05-07T08:34:04;6.37;;;2.30;;
10295;SDS011;5193;51.032;6.356;2023-05-07T08:36:30;5.53;;;2.23;;
10295;SDS011;5193;51.032;6.356;2023-05-07T08:38:56;2.87;;;1.83;;
10295;SDS011;5193;51.032;6.356;2023-05-07T08:41:21;2.93;;;1.77;;
10295;SDS011;5193;51.032;6.356;2023-05-07T08:43:48;4.57;;;2.10;;
10295;SDS011;5193;51.032;6.356;2023-05-07T08:46:20;1.83;;;1.50;;
10295;SDS011;5193;51.032;6.356;2023-05-07T08:48:50;3.00;;;1.83;;
10295;SDS011;5193;51.032;6.356;2023-05-07T08:51:17;2.80;;;1.40;;
10295;SDS011;5193;51.032;6.356;2023-05-07T08:53:45;1.80;;;1.70;;
10295;SDS011;5193;51.032;6.356;2023-05-07T08:56:14;2.63;;;1.73;;
10295;SDS011;5193;51.032;6.356;2023-05-07T08:58:42;1.90;;;1.40;;
10295;SDS011;5193;51.032;6.356;2023-05-07T09:01:08;3.17;;;2.10;;
10295;SDS011;5193;51.032;6.356;2023-05-07T09:03:37;5.83;;;1.67;;
10295;SDS011;5193;51.032;6.356;2023-05-07T09:06:04;3.27;;;2.20;;
10295;SDS011;5193;51.032;6.356;2023-05-07T09:08:29;4.97;;;2.07;;
10295;SDS011;5193;51.032;6.356;2023-05-07T09:10:57;2.47;;;2.00;;
10295;SDS011;5193;51.032;6.356;2023-05-07T09:13:23;2.60;;;2.00;;
10295;SDS011;5193;51.032;6.356;2023-05-07T09:15:48;3.50;;;2.37;;
10295;SDS011;5193;51.032;6.356;2023-05-07T09:18:14;2.83;;;2.03;;
10295;SDS011;5193;51.032;6.356;2023-05-07T09:20:40;2.40;;;2.10;;
10295;SDS011;5193;51.032;6.356;2023-05-07T09:23:06;3.17;;;1.90;;
10295;SDS011;5193;51.032;6.356;2023-05-07T09:25:32;3.23;;;2.00;;
10295;SDS011;5193;51.032;6.356;2023-05-07T09:27:59;5.83;;;1.97;;
10295;SDS011;5193;51.032;6.356;2023-05-07T09:30:29;2.43;;;1.73;;
10295;SDS011;5193;51.032;6.356;2023-05-07T09:32:57;3.20;;;1.70;;
10295;SDS011;5193;51.032;6.356;2023-05-07T09:35:24;4.40;;;2.23;;
10295;SDS011;5193;51.032;6.356;2023-05-07T09:37:56;2.10;;;1.90;;
10295;SDS011;5193;51.032;6.356;2023-05-07T09:40:27;3.27;;;2.27;;
10295;SDS011;5193;51.032;6.356;2023-05-07T09:42:54;3.10;;;1.77;;
10295;SDS011;5193;51.032;6.356;2023-05-07T09:45:29;3.77;;;1.97;;
10295;SDS011;5193;51.032;6.356;2023-05-07T09:47:57;3.27;;;2.10;;
10295;SDS011;5193;51.032;6.356;2023-05-07T09:50:25;4.60;;;2.37;;
10295;SDS011;5193;51.032;6.356;2023-05-07T09:52:53;1.80;;;1.70;;
10295;SDS011;5193;51.032;6.356;2023-05-07T09:55:20;2.90;;;1.83;;
10295;SDS011;5193;51.032;6.356;2023-05-07T09:57:48;3.33;;;2.17;;
10295;SDS011;5193;51.032;6.356;2023-05-07T10:00:16;2.93;;;2.00;;
10295;SDS011;5193;51.032;6.356;2023-05-07T10:02:45;3.10;;;1.60;;
10295;SDS011;5193;51.032;6.356;2023-05-07T10:05:16;2.13;;;1.47;;
10295;SDS011;5193;51.032;6.356;2023-05-07T10:07:43;1.43;;;1.33;;
10295;SDS011;5193;51.032;6.356;2023-05-07T10:10:09;1.33;;;1.20;;
10295;SDS011;5193;51.032;6.356;2023-05-07T10:12:36;2.50;;;1.57;;
10295;SDS011;5193;51.032;6.356;2023-05-07T10:15:07;3.33;;;1.60;;
10295;SDS011;5193;51.032;6.356;2023-05-07T10:17:37;2.97;;;1.40;;
10295;SDS011;5193;51.032;6.356;2023-05-07T10:20:04;1.83;;;1.40;;
10295;SDS011;5193;51.032;6.356;2023-05-07T10:22:38;2.40;;;1.47;;
10295;SDS011;5193;51.032;6.356;2023-05-07T10:25:18;2.63;;;1.20;;
10295;SDS011;5193;51.032;6.356;2023-05-07T10:27:57;1.60;;;1.20;;
10295;SDS011;5193;51.032;6.356;2023-05-07T10:33:06;1.63;;;1.20;;
10295;SDS011;5193;51.032;6.356;2023-05-07T10:35:40;2.47;;;1.10;;
10295;SDS011;5193;51.032;6.356;2023-05-07T10:38:07;2.43;;;1.33;;
10295;SDS011;5193;51.032;6.356;2023-05-07T10:40:33;1.77;;;1.03;;
10295;SDS011;5193;51.032;6.356;2023-05-07T10:43:00;2.60;;;1.40;;
10295;SDS011;5193;51.032;6.356;2023-05-07T10:45:30;2.53;;;1.50;;
10295;SDS011;5193;51.032;6.356;2023-05-07T10:48:05;4.03;;;1.80;;
10295;SDS011;5193;51.032;6.356;2023-05-07T10:50:35;3.07;;;1.33;;
10295;SDS011;5193;51.032;6.356;2023-05-07T10:55:52;3.13;;;1.37;;
10295;SDS011;5193;51.032;6.356;2023-05-07T10:58:54;3.10;;;1.20;;
10295;SDS011;5193;51.032;6.356;2023-05-07T11:02:05;1.83;;;1.10;;
10295;SDS011;5193;51.032;6.356;2023-05-07T11:04:15;3.20;;;1.00;;
10295;SDS011;5193;51.032;6.356;2023-05-07T11:06:45;2.20;;;1.20;;
10295;SDS011;5193;51.032;6.356;2023-05-07T11:15:09;3.90;;;1.30;;
10295;SDS011;5193;51.032;6.356;2023-05-07T11:17:52;3.07;;;1.20;;
10295;SDS011;5193;51.032;6.356;2023-05-07T11:20:43;3.70;;;1.00;;
10295;SDS011;5193;51.032;6.356;2023-05-07T11:26:08;2.30;;;1.13;;
10295;SDS011;5193;51.032;6.356;2023-05-07T11:28:38;2.10;;;1.27;;
10295;SDS011;5193;51.032;6.356;2023-05-07T11:31:06;6.67;;;1.30;;
10295;SDS011;5193;51.032;6.356;2023-05-07T11:33:33;2.00;;;1.47;;
10295;SDS011;5193;51.032;6.356;2023-05-07T11:35:59;3.97;;;1.50;;
10295;SDS011;5193;51.032;6.356;2023-05-07T11:38:25;2.20;;;1.63;;
10295;SDS011;5193;51.032;6.356;2023-05-07T11:40:51;2.03;;;1.60;;
10295;SDS011;5193;51.032;6.356;2023-05-07T11:43:21;3.17;;;1.50;;
10295;SDS011;5193;51.032;6.356;2023-05-07T11:45:47;2.77;;;1.50;;
10295;SDS011;5193;51.032;6.356;2023-05-07T11:48:14;1.53;;;1.20;;
10295;SDS011;5193;51.032;6.356;2023-05-07T11:53:24;2.23;;;1.60;;
10295;SDS011;5193;51.032;6.356;2023-05-07T11:55:57;3.07;;;1.17;;
10295;SDS011;5193;51.032;6.356;2023-05-07T11:58:23;1.77;;;1.60;;
10295;SDS011;5193;51.032;6.356;2023-05-07T12:00:50;2.67;;;1.50;;
10295;SDS011;5193;51.032;6.356;2023-05-07T12:03:17;4.83;;;1.30;;
10295;SDS011;5193;51.032;6.356;2023-05-07T12:05:43;2.87;;;1.67;;
10295;SDS011;5193;51.032;6.356;2023-05-07T12:08:13;1.67;;;1.47;;
10295;SDS011;5193;51.032;6.356;2023-05-07T12:10:43;2.90;;;1.60;;
10295;SDS011;5193;51.032;6.356;2023-05-07T12:15:44;2.13;;;1.40;;
10295;SDS011;5193;51.032;6.356;2023-05-07T12:18:10;2.27;;;1.47;;
10295;SDS011;5193;51.032;6.356;2023-05-07T12:20:37;2.50;;;1.60;;
10295;SDS011;5193;51.032;6.356;2023-05-07T12:23:03;3.60;;;1.70;;
10295;SDS011;5193;51.032;6.356;2023-05-07T12:25:34;2.53;;;1.70;;
10295;SDS011;5193;51.032;6.356;2023-05-07T12:28:03;3.67;;;2.00;;
10295;SDS011;5193;51.032;6.356;2023-05-07T12:30:39;2.87;;;1.63;;
10295;SDS011;5193;51.032;6.356;2023-05-07T12:33:05;1.80;;;1.30;;
10295;SDS011;5193;51.032;6.356;2023-05-07T12:35:32;4.40;;;1.70;;
10295;SDS011;5193;51.032;6.356;2023-05-07T12:38:12;2.47;;;1.53;;
10295;SDS011;5193;51.032;6.356;2023-05-07T12:40:45;2.27;;;1.70;;
10295;SDS011;5193;51.032;6.356;2023-05-07T12:45:45;1.80;;;1.37;;
10295;SDS011;5193;51.032;6.356;2023-05-07T12:48:12;3.10;;;1.73;;
10295;SDS011;5193;51.032;6.356;2023-05-07T12:50:38;1.90;;;1.50;;
10295;SDS011;5193;51.032;6.356;2023-05-07T12:53:04;2.73;;;1.70;;
10295;SDS011;5193;51.032;6.356;2023-05-07T12:55:39;2.20;;;1.40;;
10295;SDS011;5193;51.032;6.356;2023-05-07T12:58:24;3.27;;;1.80;;
10295;SDS011;5193;51.032;6.356;2023-05-07T13:00:53;3.43;;;1.50;;
10295;SDS011;5193;51.032;6.356;2023-05-07T13:03:27;1.60;;;1.20;;
10295;SDS011;5193;51.032;6.356;2023-05-07T13:05:52;2.23;;;1.50;;
10295;SDS011;5193;51.032;6.356;2023-05-07T13:08:26;16.67;;;3.40;;
10295;SDS011;5193;51.032;6.356;2023-05-07T13:10:57;12.73;;;3.37;;
10295;SDS011;5193;51.032;6.356;2023-05-07T13:13:24;7.97;;;2.67;;
10295;SDS011;5193;51.032;6.356;2023-05-07T13:15:50;9.73;;;2.67;;
10295;SDS011;5193;51.032;6.356;2023-05-07T13:18:15;5.07;;;2.40;;
10295;SDS011;5193;51.032;6.356;2023-05-07T13:20:41;5.90;;;2.93;;
10295;SDS011;5193;51.032;6.356;2023-05-07T13:23:06;7.63;;;2.30;;
10295;SDS011;5193;51.032;6.356;2023-05-07T13:25:32;5.90;;;2.10;;
10295;SDS011;5193;51.032;6.356;2023-05-07T13:27:58;4.33;;;2.57;;
10295;SDS011;5193;51.032;6.356;2023-05-07T13:30:23;5.80;;;1.90;;
10295;SDS011;5193;51.032;6.356;2023-05-07T13:32:49;6.97;;;4.20;;
10295;SDS011;5193;51.032;6.356;2023-05-07T13:35:15;7.03;;;5.40;;
10295;SDS011;5193;51.032;6.356;2023-05-07T13:37:41;3.20;;;2.90;;
10295;SDS011;5193;51.032;6.356;2023-05-07T13:40:07;23.83;;;18.93;;
10295;SDS011;5193;51.032;6.356;2023-05-07T13:42:33;8.57;;;3.70;;
10295;SDS011;5193;51.032;6.356;2023-05-07T13:44:58;15.40;;;9.70;;
10295;SDS011;5193;51.032;6.356;2023-05-07T13:47:24;5.67;;;2.00;;
10295;SDS011;5193;51.032;6.356;2023-05-07T13:49:49;2.63;;;1.00;;
10295;SDS011;5193;51.032;6.356;2023-05-07T13:52:16;3.80;;;1.17;;
10295;SDS011;5193;51.032;6.356;2023-05-07T13:54:41;2.43;;;1.10;;
10295;SDS011;5193;51.032;6.356;2023-05-07T13:57:07;1.53;;;1.10;;
10295;SDS011;5193;51.032;6.356;2023-05-07T13:59:33;1.73;;;1.17;;
10295;SDS011;5193;51.032;6.356;2023-05-07T14:01:58;1.73;;;1.20;;
10295;SDS011;5193;51.032;6.356;2023-05-07T14:04:24;2.00;;;1.20;;
10295;SDS011;5193;51.032;6.356;2023-05-07T14:06:50;1.70;;;1.10;;
10295;SDS011;5193;51.032;6.356;2023-05-07T14:09:16;1.53;;;1.20;;
10295;SDS011;5193;51.032;6.356;2023-05-07T14:11:41;2.77;;;1.03;;
10295;SDS011;5193;51.032;6.356;2023-05-07T14:14:07;1.30;;;1.10;;
10295;SDS011;5193;51.032;6.356;2023-05-07T14:16:35;1.33;;;1.23;;
10295;SDS011;5193;51.032;6.356;2023-05-07T14:19:01;2.60;;;1.00;;
10295;SDS011;5193;51.032;6.356;2023-05-07T14:21:27;1.80;;;1.20;;
10295;SDS011;5193;51.032;6.356;2023-05-07T14:23:52;2.00;;;1.07;;
10295;SDS011;5193;51.032;6.356;2023-05-07T14:26:18;2.20;;;1.00;;
10295;SDS011;5193;51.032;6.356;2023-05-07T14:28:44;2.50;;;1.20;;
10295;SDS011;5193;51.032;6.356;2023-05-07T14:31:11;2.67;;;1.00;;
10295;SDS011;5193;51.032;6.356;2023-05-07T14:33:37;1.03;;;0.80;;
10295;SDS011;5193;51.032;6.356;2023-05-07T14:36:03;1.30;;;1.00;;
10295;SDS011;5193;51.032;6.356;2023-05-07T14:38:28;2.63;;;1.17;;
10295;SDS011;5193;51.032;6.356;2023-05-07T14:40:55;1.10;;;1.00;;
10295;SDS011;5193;51.032;6.356;2023-05-07T14:43:21;1.13;;;0.80;;
10295;SDS011;5193;51.032;6.356;2023-05-07T14:45:47;3.33;;;1.30;;
10295;SDS011;5193;51.032;6.356;2023-05-07T14:48:12;0.67;;;0.67;;
10295;SDS011;5193;51.032;6.356;2023-05-07T14:50:40;1.13;;;0.80;;
10295;SDS011;5193;51.032;6.356;2023-05-07T14:53:06;3.53;;;0.90;;
10295;SDS011;5193;51.032;6.356;2023-05-07T14:55:32;1.57;;;0.80;;
10295;SDS011;5193;51.032;6.356;2023-05-07T14:57:58;1.47;;;0.93;;
10295;SDS011;5193;51.032;6.356;2023-05-07T15:00:24;1.13;;;0.90;;
10295;SDS011;5193;51.032;6.356;2023-05-07T15:02:49;1.90;;;0.80;;
10295;SDS011;5193;51.032;6.356;2023-05-07T15:05:15;1.20;;;0.70;;
10295;SDS011;5193;51.032;6.356;2023-05-07T15:07:41;1.33;;;0.60;;
10295;SDS011;5193;51.032;6.356;2023-05-07T15:10:06;0.80;;;0.80;;
10295;SDS011;5193;51.032;6.356;2023-05-07T15:12:32;0.83;;;0.60;;